メインページ
METAR-TAF:

METAR-TAF

空港 :

ダマスカス国際空港

ダマスカス, シリア

緯度: 33-25N, 経度: 036-31E, 海抜: 608m

現時点の気象観測

当レポートは26分前の19:00(UTC)に作成
南/南西の風 12kt
気温 24°C
湿度 50%
気圧 1012 hPa
視程10km以上
1,500メートル以下は雲なし、積乱雲なし

METAR: OSDI 181900Z 21012KT CAVOK 24/13 Q1012

時間: 22:26 (19:26 UTC)

予報

当レポートは3時間26分前の16:00(UTC)に作成
予報は18日の 18時(UTC)から 19日の 24時(UTC)まで有効
変向風 3kt
視程10km以上
1,500メートル以下は雲なし、積乱雲なし
19日の 09時(UTC)から 19日の 18時(UTC)まで一時的に
南西の風 10kt
視程10km以上
1,500メートル以下は雲なし、積乱雲なし

TAF: OSDI 181600Z 1818/1924 VRB03KT CAVOK TEMPO 1909/1918 22010KT CAVOK

4,000以上の空港の気象観測と天気予報(METAR報とTAF報)

利用可能な観測所は地図上に黄色い丸と赤い丸で示す。

丸の上にカーソルを重ねると観測所名を参照できる。

次にクリックすると気象観測と天気予報を参照できる。

マップの切り替え:黒色「×」印の緑ボタンをクリックして拡大、「-」印の緑ボタンをクリックして縮小、緑色の三角印をクリックして隣りの地図に切り替え


METAR-TAF: